VTBO

Trat Airport

Thailand
TAF VTBO 211700Z 2118/2218 VRB02KT 5000 BR FEW020 SCT100 TEMPO 2120/2202 VRB10KT 3000 TSRA BR FEW018CB SCT020 BKN100 BECMG 2202/2204 18010KT 8000 NSW BECMG 2212/2214 VRB02KT 5000 BR
Issued Valid From Valid To
Jun-21 @ 17:00 UTC
(an hour ago)
Jun-21 @ 18:00 UTC
(11 minutes ago)
Jun-22 @ 18:00 UTC
(in 24 hours)
Jun-21 @ 18:00 to Jun-22 @ 02:00
TAF VTBO 211700Z 2118/2218 VRB02KT 5000 BR FEW020 SCT100
Wind Visibility Clouds Conditions
Variable at 2 knots 5,005 meters
  • Few at 2,000' AGL
  • Scattered at 10,000' AGL
  • Mist
Temporary Jun-21 @ 20:00 to Jun-22 @ 02:00
TEMPO 2120/2202 VRB10KT 3000 TSRA BR FEW018CB SCT020 BKN100
Wind Visibility Clouds Conditions
Variable at 10 knots 2,993 meters
  • Few at 1,800' AGL
  • Scattered at 2,000' AGL
  • Broken at 10,000' AGL
  • Thunderstorm
  • Rain
  • Mist
Becoming Jun-22 @ 02:00 to Jun-22 @ 12:00
BECMG 2202/2204 18010KT 8000 NSW
Wind Visibility Clouds Conditions
180° at 10 knots 7,998 meters
  • Few at 2,000' AGL
  • Scattered at 10,000' AGL
Becoming Jun-22 @ 12:00 to Jun-22 @ 18:00
BECMG 2212/2214 VRB02KT 5000 BR
Wind Visibility Clouds Conditions
Variable at 2 knots 5,005 meters
  • Few at 2,000' AGL
  • Scattered at 10,000' AGL
  • Mist
TAF VTBO 211700Z 2118/2218 VRB02KT 5000 BR FEW020 SCT100 TEMPO 2120/2202 VRB10KT 3000 TSRA BR FEW018CB SCT020 BKN100 BECMG 2202/2204 18010KT 8000 NSW BECMG 2212/2214 VRB02KT 5000 BR
Issued Jun-21 @ 17:00 UTC
(an hour ago)
Valid From Jun-21 @ 18:00 UTC
(11 minutes ago)
Valid To Jun-22 @ 18:00 UTC
(in 24 hours)
Jun-21 @ 18:00 - Jun-22 @ 02:00
Wind Visibility
Variable at 2 knots 5,005 meters
Clouds
  • Few at 2,000' AGL
  • Scattered at 10,000' AGL
Conditions
  • Mist
Temporary Jun-21 @ 20:00 - Jun-22 @ 02:00
Wind Visibility
Variable at 10 knots 2,993 meters
Clouds
  • Few at 1,800' AGL
  • Scattered at 2,000' AGL
  • Broken at 10,000' AGL
Conditions
  • Thunderstorm
  • Rain
  • Mist
Becoming Jun-22 @ 02:00 - Jun-22 @ 12:00
Wind Visibility
180° at 10 knots 7,998 meters
Clouds
  • Few at 2,000' AGL
  • Scattered at 10,000' AGL
Conditions
Becoming Jun-22 @ 12:00 - Jun-22 @ 18:00
Wind Visibility
Variable at 2 knots 5,005 meters
Clouds
  • Few at 2,000' AGL
  • Scattered at 10,000' AGL
Conditions
  • Mist